sensor_id;sensor_type;location;lat;lon;timestamp;P1;durP1;ratioP1;P2;durP2;ratioP2
17365;SDS011;8800;50.118;9.900;2022-07-11T00:02:23;2.67;;;2.00;;
17365;SDS011;8800;50.118;9.900;2022-07-11T00:04:51;1.98;;;1.67;;
17365;SDS011;8800;50.118;9.900;2022-07-11T00:07:17;2.63;;;2.05;;
17365;SDS011;8800;50.118;9.900;2022-07-11T00:09:43;4.13;;;1.80;;
17365;SDS011;8800;50.118;9.900;2022-07-11T00:12:11;2.10;;;1.75;;
17365;SDS011;8800;50.118;9.900;2022-07-11T00:14:37;5.60;;;2.00;;
17365;SDS011;8800;50.118;9.900;2022-07-11T00:17:05;2.30;;;2.00;;
17365;SDS011;8800;50.118;9.900;2022-07-11T00:19:31;2.85;;;2.15;;
17365;SDS011;8800;50.118;9.900;2022-07-11T00:21:59;2.83;;;2.25;;
17365;SDS011;8800;50.118;9.900;2022-07-11T00:24:25;2.80;;;2.08;;
17365;SDS011;8800;50.118;9.900;2022-07-11T00:26:52;3.95;;;1.95;;
17365;SDS011;8800;50.118;9.900;2022-07-11T00:29:18;2.78;;;2.35;;
17365;SDS011;8800;50.118;9.900;2022-07-11T00:31:44;4.18;;;2.50;;
17365;SDS011;8800;50.118;9.900;2022-07-11T00:34:11;4.07;;;2.50;;
17365;SDS011;8800;50.118;9.900;2022-07-11T00:36:37;4.80;;;2.13;;
17365;SDS011;8800;50.118;9.900;2022-07-11T00:39:05;5.32;;;2.00;;
17365;SDS011;8800;50.118;9.900;2022-07-11T00:41:32;2.72;;;2.00;;
17365;SDS011;8800;50.118;9.900;2022-07-11T00:43:58;2.65;;;2.35;;
17365;SDS011;8800;50.118;9.900;2022-07-11T00:46:26;3.45;;;2.42;;
17365;SDS011;8800;50.118;9.900;2022-07-11T00:48:53;4.85;;;2.05;;
17365;SDS011;8800;50.118;9.900;2022-07-11T00:51:21;3.17;;;2.10;;
17365;SDS011;8800;50.118;9.900;2022-07-11T00:53:48;2.33;;;2.13;;
17365;SDS011;8800;50.118;9.900;2022-07-11T00:56:18;2.67;;;2.00;;
17365;SDS011;8800;50.118;9.900;2022-07-11T00:58:45;2.50;;;2.30;;
17365;SDS011;8800;50.118;9.900;2022-07-11T01:01:12;2.65;;;2.25;;
17365;SDS011;8800;50.118;9.900;2022-07-11T01:03:38;2.45;;;1.90;;
17365;SDS011;8800;50.118;9.900;2022-07-11T01:06:05;2.47;;;2.13;;
17365;SDS011;8800;50.118;9.900;2022-07-11T01:08:32;3.25;;;2.30;;
17365;SDS011;8800;50.118;9.900;2022-07-11T01:11:00;2.42;;;2.22;;
17365;SDS011;8800;50.118;9.900;2022-07-11T01:13:28;3.80;;;2.30;;
17365;SDS011;8800;50.118;9.900;2022-07-11T01:18:38;2.75;;;2.20;;
17365;SDS011;8800;50.118;9.900;2022-07-11T01:21:07;2.20;;;2.00;;
17365;SDS011;8800;50.118;9.900;2022-07-11T01:23:37;2.90;;;2.22;;
17365;SDS011;8800;50.118;9.900;2022-07-11T01:26:03;2.72;;;2.42;;
17365;SDS011;8800;50.118;9.900;2022-07-11T01:28:30;2.67;;;2.28;;
17365;SDS011;8800;50.118;9.900;2022-07-11T01:30:56;2.95;;;2.17;;
17365;SDS011;8800;50.118;9.900;2022-07-11T01:33:22;3.03;;;2.33;;
17365;SDS011;8800;50.118;9.900;2022-07-11T01:35:49;3.15;;;2.30;;
17365;SDS011;8800;50.118;9.900;2022-07-11T01:38:15;2.45;;;2.20;;
17365;SDS011;8800;50.118;9.900;2022-07-11T01:40:43;5.78;;;2.58;;
17365;SDS011;8800;50.118;9.900;2022-07-11T01:43:09;3.00;;;2.33;;
17365;SDS011;8800;50.118;9.900;2022-07-11T01:45:36;2.72;;;2.17;;
17365;SDS011;8800;50.118;9.900;2022-07-11T01:48:02;4.95;;;2.22;;
17365;SDS011;8800;50.118;9.900;2022-07-11T01:50:29;3.33;;;2.40;;
17365;SDS011;8800;50.118;9.900;2022-07-11T01:52:55;2.67;;;2.25;;
17365;SDS011;8800;50.118;9.900;2022-07-11T01:55:22;3.17;;;2.50;;
17365;SDS011;8800;50.118;9.900;2022-07-11T01:57:49;3.67;;;2.10;;
17365;SDS011;8800;50.118;9.900;2022-07-11T02:00:16;2.42;;;2.22;;
17365;SDS011;8800;50.118;9.900;2022-07-11T02:02:42;2.70;;;2.20;;
17365;SDS011;8800;50.118;9.900;2022-07-11T02:05:09;3.40;;;2.40;;
17365;SDS011;8800;50.118;9.900;2022-07-11T02:07:35;4.07;;;2.63;;
17365;SDS011;8800;50.118;9.900;2022-07-11T02:10:28;3.22;;;2.42;;
17365;SDS011;8800;50.118;9.900;2022-07-11T02:12:56;3.08;;;2.35;;
17365;SDS011;8800;50.118;9.900;2022-07-11T02:15:23;3.60;;;2.50;;
17365;SDS011;8800;50.118;9.900;2022-07-11T02:17:49;2.45;;;2.13;;
17365;SDS011;8800;50.118;9.900;2022-07-11T02:20:16;4.00;;;2.67;;
17365;SDS011;8800;50.118;9.900;2022-07-11T02:22:43;3.45;;;2.22;;
17365;SDS011;8800;50.118;9.900;2022-07-11T02:25:10;2.60;;;2.28;;
17365;SDS011;8800;50.118;9.900;2022-07-11T02:27:37;2.72;;;2.20;;
17365;SDS011;8800;50.118;9.900;2022-07-11T02:30:05;2.88;;;2.58;;
17365;SDS011;8800;50.118;9.900;2022-07-11T02:32:32;3.40;;;2.40;;
17365;SDS011;8800;50.118;9.900;2022-07-11T02:34:58;4.28;;;2.40;;
17365;SDS011;8800;50.118;9.900;2022-07-11T02:37:25;3.67;;;2.47;;
17365;SDS011;8800;50.118;9.900;2022-07-11T02:39:51;2.58;;;2.35;;
17365;SDS011;8800;50.118;9.900;2022-07-11T02:42:18;3.40;;;2.35;;
17365;SDS011;8800;50.118;9.900;2022-07-11T02:44:44;3.17;;;2.25;;
17365;SDS011;8800;50.118;9.900;2022-07-11T02:47:12;2.40;;;2.20;;
17365;SDS011;8800;50.118;9.900;2022-07-11T02:49:39;2.58;;;1.80;;
17365;SDS011;8800;50.118;9.900;2022-07-11T02:52:05;2.30;;;2.10;;
17365;SDS011;8800;50.118;9.900;2022-07-11T02:54:32;3.45;;;2.20;;
17365;SDS011;8800;50.118;9.900;2022-07-11T02:56:58;2.55;;;2.00;;
17365;SDS011;8800;50.118;9.900;2022-07-11T02:59:26;4.35;;;2.40;;
17365;SDS011;8800;50.118;9.900;2022-07-11T03:01:52;2.20;;;2.00;;
17365;SDS011;8800;50.118;9.900;2022-07-11T03:04:20;2.85;;;2.20;;
17365;SDS011;8800;50.118;9.900;2022-07-11T03:06:47;3.13;;;2.40;;
17365;SDS011;8800;50.118;9.900;2022-07-11T03:09:13;3.15;;;2.28;;
17365;SDS011;8800;50.118;9.900;2022-07-11T03:11:40;2.40;;;2.20;;
17365;SDS011;8800;50.118;9.900;2022-07-11T03:14:06;2.97;;;2.22;;
17365;SDS011;8800;50.118;9.900;2022-07-11T03:16:33;2.40;;;2.10;;
17365;SDS011;8800;50.118;9.900;2022-07-11T03:18:59;2.70;;;2.35;;
17365;SDS011;8800;50.118;9.900;2022-07-11T03:21:28;4.35;;;2.40;;
17365;SDS011;8800;50.118;9.900;2022-07-11T03:23:54;3.70;;;2.63;;
17365;SDS011;8800;50.118;9.900;2022-07-11T03:26:20;2.38;;;2.05;;
17365;SDS011;8800;50.118;9.900;2022-07-11T03:28:47;3.70;;;2.40;;
17365;SDS011;8800;50.118;9.900;2022-07-11T03:31:13;3.22;;;2.10;;
17365;SDS011;8800;50.118;9.900;2022-07-11T03:33:40;3.38;;;2.50;;
17365;SDS011;8800;50.118;9.900;2022-07-11T03:36:06;2.95;;;2.40;;
17365;SDS011;8800;50.118;9.900;2022-07-11T03:38:34;3.50;;;2.25;;
17365;SDS011;8800;50.118;9.900;2022-07-11T03:41:00;2.58;;;2.38;;
17365;SDS011;8800;50.118;9.900;2022-07-11T03:43:27;3.33;;;2.55;;
17365;SDS011;8800;50.118;9.900;2022-07-11T03:45:53;3.03;;;2.47;;
17365;SDS011;8800;50.118;9.900;2022-07-11T03:48:21;3.17;;;2.35;;
17365;SDS011;8800;50.118;9.900;2022-07-11T03:50:47;2.65;;;2.35;;
17365;SDS011;8800;50.118;9.900;2022-07-11T03:53:14;5.10;;;2.40;;
17365;SDS011;8800;50.118;9.900;2022-07-11T03:55:42;4.55;;;2.53;;
17365;SDS011;8800;50.118;9.900;2022-07-11T03:58:08;3.10;;;2.80;;
17365;SDS011;8800;50.118;9.900;2022-07-11T04:00:35;5.18;;;2.78;;
17365;SDS011;8800;50.118;9.900;2022-07-11T04:03:01;2.72;;;2.42;;
17365;SDS011;8800;50.118;9.900;2022-07-11T04:05:28;2.80;;;2.50;;
17365;SDS011;8800;50.118;9.900;2022-07-11T04:07:54;2.53;;;2.33;;
17365;SDS011;8800;50.118;9.900;2022-07-11T04:10:22;3.40;;;2.38;;
17365;SDS011;8800;50.118;9.900;2022-07-11T04:12:50;3.45;;;2.50;;
17365;SDS011;8800;50.118;9.900;2022-07-11T04:15:16;2.50;;;2.28;;
17365;SDS011;8800;50.118;9.900;2022-07-11T04:17:43;3.30;;;2.63;;
17365;SDS011;8800;50.118;9.900;2022-07-11T04:20:10;4.50;;;2.63;;
17365;SDS011;8800;50.118;9.900;2022-07-11T04:22:36;3.13;;;2.40;;
17365;SDS011;8800;50.118;9.900;2022-07-11T04:25:04;3.10;;;2.58;;
17365;SDS011;8800;50.118;9.900;2022-07-11T04:27:30;4.75;;;2.92;;
17365;SDS011;8800;50.118;9.900;2022-07-11T04:29:58;5.07;;;3.00;;
17365;SDS011;8800;50.118;9.900;2022-07-11T04:32:24;3.28;;;2.90;;
17365;SDS011;8800;50.118;9.900;2022-07-11T04:34:51;3.80;;;2.80;;
17365;SDS011;8800;50.118;9.900;2022-07-11T04:37:17;2.88;;;2.60;;
17365;SDS011;8800;50.118;9.900;2022-07-11T04:39:43;2.88;;;2.40;;
17365;SDS011;8800;50.118;9.900;2022-07-11T04:42:11;3.28;;;2.60;;
17365;SDS011;8800;50.118;9.900;2022-07-11T04:44:38;2.97;;;2.58;;
17365;SDS011;8800;50.118;9.900;2022-07-11T04:47:06;2.60;;;2.40;;
17365;SDS011;8800;50.118;9.900;2022-07-11T04:49:32;7.03;;;2.70;;
17365;SDS011;8800;50.118;9.900;2022-07-11T04:51:59;4.53;;;2.90;;
17365;SDS011;8800;50.118;9.900;2022-07-11T04:54:25;2.97;;;2.70;;
17365;SDS011;8800;50.118;9.900;2022-07-11T04:56:52;3.45;;;2.75;;
17365;SDS011;8800;50.118;9.900;2022-07-11T04:59:18;2.70;;;2.50;;
17365;SDS011;8800;50.118;9.900;2022-07-11T05:01:44;2.80;;;2.58;;
17365;SDS011;8800;50.118;9.900;2022-07-11T05:04:12;3.15;;;2.55;;
17365;SDS011;8800;50.118;9.900;2022-07-11T05:06:39;2.63;;;2.42;;
17365;SDS011;8800;50.118;9.900;2022-07-11T05:09:05;2.35;;;2.15;;
17365;SDS011;8800;50.118;9.900;2022-07-11T05:11:33;3.25;;;2.33;;
17365;SDS011;8800;50.118;9.900;2022-07-11T05:13:59;2.72;;;2.30;;
17365;SDS011;8800;50.118;9.900;2022-07-11T05:16:25;3.33;;;2.35;;
17365;SDS011;8800;50.118;9.900;2022-07-11T05:18:52;2.97;;;2.65;;
17365;SDS011;8800;50.118;9.900;2022-07-11T05:21:20;3.05;;;2.40;;
17365;SDS011;8800;50.118;9.900;2022-07-11T05:23:49;2.88;;;2.53;;
17365;SDS011;8800;50.118;9.900;2022-07-11T05:26:15;2.25;;;2.05;;
17365;SDS011;8800;50.118;9.900;2022-07-11T05:28:42;4.20;;;2.25;;
17365;SDS011;8800;50.118;9.900;2022-07-11T05:31:08;2.30;;;2.10;;
17365;SDS011;8800;50.118;9.900;2022-07-11T05:33:35;2.40;;;2.20;;
17365;SDS011;8800;50.118;9.900;2022-07-11T05:36:02;3.10;;;2.22;;
17365;SDS011;8800;50.118;9.900;2022-07-11T05:38:30;3.25;;;2.15;;
17365;SDS011;8800;50.118;9.900;2022-07-11T05:40:56;2.88;;;2.38;;
17365;SDS011;8800;50.118;9.900;2022-07-11T05:43:24;2.20;;;2.00;;
17365;SDS011;8800;50.118;9.900;2022-07-11T05:45:51;5.45;;;2.58;;
17365;SDS011;8800;50.118;9.900;2022-07-11T05:48:17;5.25;;;2.15;;
17365;SDS011;8800;50.118;9.900;2022-07-11T05:50:44;2.90;;;2.22;;
17365;SDS011;8800;50.118;9.900;2022-07-11T05:53:10;3.70;;;2.50;;
17365;SDS011;8800;50.118;9.900;2022-07-11T05:55:39;5.57;;;2.40;;
17365;SDS011;8800;50.118;9.900;2022-07-11T05:58:05;2.85;;;2.00;;
17365;SDS011;8800;50.118;9.900;2022-07-11T06:00:32;3.60;;;2.47;;
17365;SDS011;8800;50.118;9.900;2022-07-11T06:02:58;2.50;;;2.30;;
17365;SDS011;8800;50.118;9.900;2022-07-11T06:05:25;4.15;;;2.30;;
17365;SDS011;8800;50.118;9.900;2022-07-11T06:07:51;4.30;;;2.50;;
17365;SDS011;8800;50.118;9.900;2022-07-11T06:10:35;4.85;;;2.20;;
17365;SDS011;8800;50.118;9.900;2022-07-11T06:13:02;2.45;;;2.25;;
17365;SDS011;8800;50.118;9.900;2022-07-11T06:15:29;2.58;;;2.17;;
17365;SDS011;8800;50.118;9.900;2022-07-11T06:17:55;2.53;;;2.05;;
17365;SDS011;8800;50.118;9.900;2022-07-11T06:20:22;2.90;;;1.90;;
17365;SDS011;8800;50.118;9.900;2022-07-11T06:22:48;2.45;;;1.90;;
17365;SDS011;8800;50.118;9.900;2022-07-11T06:25:15;3.30;;;2.00;;
17365;SDS011;8800;50.118;9.900;2022-07-11T06:27:42;2.45;;;2.20;;
17365;SDS011;8800;50.118;9.900;2022-07-11T06:30:10;2.40;;;1.95;;
17365;SDS011;8800;50.118;9.900;2022-07-11T06:32:36;3.08;;;2.10;;
17365;SDS011;8800;50.118;9.900;2022-07-11T06:35:05;2.45;;;2.20;;
17365;SDS011;8800;50.118;9.900;2022-07-11T06:37:32;2.53;;;1.80;;
17365;SDS011;8800;50.118;9.900;2022-07-11T06:39:59;5.88;;;2.08;;
17365;SDS011;8800;50.118;9.900;2022-07-11T06:42:25;2.38;;;2.17;;
17365;SDS011;8800;50.118;9.900;2022-07-11T06:44:52;2.70;;;2.30;;
17365;SDS011;8800;50.118;9.900;2022-07-11T06:47:21;4.53;;;2.33;;
17365;SDS011;8800;50.118;9.900;2022-07-11T06:49:47;5.10;;;2.55;;
17365;SDS011;8800;50.118;9.900;2022-07-11T06:52:14;2.25;;;2.05;;
17365;SDS011;8800;50.118;9.900;2022-07-11T06:54:40;3.00;;;2.13;;
17365;SDS011;8800;50.118;9.900;2022-07-11T06:57:07;3.97;;;2.60;;
17365;SDS011;8800;50.118;9.900;2022-07-11T06:59:33;5.57;;;2.67;;
17365;SDS011;8800;50.118;9.900;2022-07-11T07:01:59;5.53;;;2.80;;
17365;SDS011;8800;50.118;9.900;2022-07-11T07:04:27;4.80;;;2.83;;
17365;SDS011;8800;50.118;9.900;2022-07-11T07:06:54;2.83;;;2.50;;
17365;SDS011;8800;50.118;9.900;2022-07-11T07:09:20;4.45;;;2.88;;
17365;SDS011;8800;50.118;9.900;2022-07-11T07:11:47;5.40;;;2.85;;
17365;SDS011;8800;50.118;9.900;2022-07-11T07:14:13;5.82;;;2.88;;
17365;SDS011;8800;50.118;9.900;2022-07-11T07:16:40;6.40;;;2.90;;
17365;SDS011;8800;50.118;9.900;2022-07-11T07:19:06;5.30;;;3.03;;
17365;SDS011;8800;50.118;9.900;2022-07-11T07:21:34;6.15;;;2.90;;
17365;SDS011;8800;50.118;9.900;2022-07-11T07:24:00;3.65;;;3.10;;
17365;SDS011;8800;50.118;9.900;2022-07-11T07:26:27;4.72;;;3.20;;
17365;SDS011;8800;50.118;9.900;2022-07-11T07:28:53;4.88;;;3.10;;
17365;SDS011;8800;50.118;9.900;2022-07-11T07:31:20;4.97;;;3.17;;
17365;SDS011;8800;50.118;9.900;2022-07-11T07:33:46;4.80;;;2.88;;
17365;SDS011;8800;50.118;9.900;2022-07-11T07:36:13;5.32;;;3.38;;
17365;SDS011;8800;50.118;9.900;2022-07-11T07:38:41;5.68;;;3.08;;
17365;SDS011;8800;50.118;9.900;2022-07-11T07:41:08;5.63;;;3.35;;
17365;SDS011;8800;50.118;9.900;2022-07-11T07:43:35;5.13;;;3.33;;
17365;SDS011;8800;50.118;9.900;2022-07-11T07:46:01;4.65;;;3.50;;
17365;SDS011;8800;50.118;9.900;2022-07-11T07:48:27;6.72;;;4.03;;
17365;SDS011;8800;50.118;9.900;2022-07-11T07:50:54;6.03;;;3.70;;
17365;SDS011;8800;50.118;9.900;2022-07-11T07:53:20;6.47;;;3.78;;
17365;SDS011;8800;50.118;9.900;2022-07-11T07:55:48;8.60;;;4.18;;
17365;SDS011;8800;50.118;9.900;2022-07-11T07:58:15;6.53;;;3.40;;
17365;SDS011;8800;50.118;9.900;2022-07-11T08:00:42;6.15;;;4.10;;
17365;SDS011;8800;50.118;9.900;2022-07-11T08:03:26;7.43;;;4.30;;
17365;SDS011;8800;50.118;9.900;2022-07-11T08:05:52;7.35;;;4.00;;
17365;SDS011;8800;50.118;9.900;2022-07-11T08:08:19;4.78;;;4.10;;
17365;SDS011;8800;50.118;9.900;2022-07-11T08:10:45;6.57;;;4.38;;
17365;SDS011;8800;50.118;9.900;2022-07-11T08:13:13;6.57;;;4.18;;
17365;SDS011;8800;50.118;9.900;2022-07-11T08:15:39;6.90;;;5.10;;
17365;SDS011;8800;50.118;9.900;2022-07-11T08:18:06;6.78;;;4.60;;
17365;SDS011;8800;50.118;9.900;2022-07-11T08:20:33;5.38;;;4.10;;
17365;SDS011;8800;50.118;9.900;2022-07-11T08:22:59;6.88;;;4.15;;
17365;SDS011;8800;50.118;9.900;2022-07-11T08:25:27;6.10;;;4.35;;
17365;SDS011;8800;50.118;9.900;2022-07-11T08:27:53;7.05;;;4.40;;
17365;SDS011;8800;50.118;9.900;2022-07-11T08:30:21;6.07;;;4.13;;
17365;SDS011;8800;50.118;9.900;2022-07-11T08:32:47;7.68;;;4.40;;
17365;SDS011;8800;50.118;9.900;2022-07-11T08:35:14;7.50;;;4.18;;
17365;SDS011;8800;50.118;9.900;2022-07-11T08:37:41;5.93;;;3.95;;
17365;SDS011;8800;50.118;9.900;2022-07-11T08:40:07;6.55;;;4.07;;
17365;SDS011;8800;50.118;9.900;2022-07-11T08:42:35;6.95;;;4.05;;
17365;SDS011;8800;50.118;9.900;2022-07-11T08:45:03;6.55;;;3.92;;
17365;SDS011;8800;50.118;9.900;2022-07-11T08:47:31;5.05;;;3.10;;
17365;SDS011;8800;50.118;9.900;2022-07-11T08:49:58;1.58;;;1.10;;
17365;SDS011;8800;50.118;9.900;2022-07-11T08:52:25;0.70;;;0.60;;
17365;SDS011;8800;50.118;9.900;2022-07-11T08:54:52;2.75;;;0.50;;
17365;SDS011;8800;50.118;9.900;2022-07-11T08:57:18;0.43;;;0.35;;
17365;SDS011;8800;50.118;9.900;2022-07-11T08:59:45;0.85;;;0.38;;
17365;SDS011;8800;50.118;9.900;2022-07-11T09:02:13;2.17;;;0.50;;
17365;SDS011;8800;50.118;9.900;2022-07-11T09:04:41;4.25;;;0.60;;
17365;SDS011;8800;50.118;9.900;2022-07-11T09:07:07;2.97;;;0.60;;
17365;SDS011;8800;50.118;9.900;2022-07-11T09:09:34;1.05;;;0.43;;
17365;SDS011;8800;50.118;9.900;2022-07-11T09:12:00;2.17;;;0.47;;
17365;SDS011;8800;50.118;9.900;2022-07-11T09:14:27;0.68;;;0.50;;
17365;SDS011;8800;50.118;9.900;2022-07-11T09:16:55;1.45;;;0.90;;
17365;SDS011;8800;50.118;9.900;2022-07-11T09:19:22;0.40;;;0.40;;
17365;SDS011;8800;50.118;9.900;2022-07-11T09:22:00;1.00;;;0.60;;
17365;SDS011;8800;50.118;9.900;2022-07-11T09:24:54;1.02;;;0.43;;
17365;SDS011;8800;50.118;9.900;2022-07-11T09:27:42;1.10;;;0.30;;
17365;SDS011;8800;50.118;9.900;2022-07-11T09:30:15;0.40;;;0.32;;
17365;SDS011;8800;50.118;9.900;2022-07-11T09:32:43;1.25;;;0.40;;
17365;SDS011;8800;50.118;9.900;2022-07-11T09:35:17;1.30;;;0.30;;
17365;SDS011;8800;50.118;9.900;2022-07-11T09:37:45;0.30;;;0.30;;
17365;SDS011;8800;50.118;9.900;2022-07-11T09:40:12;2.90;;;0.30;;
17365;SDS011;8800;50.118;9.900;2022-07-11T09:42:45;0.82;;;0.40;;
17365;SDS011;8800;50.118;9.900;2022-07-11T09:45:13;1.33;;;0.45;;
17365;SDS011;8800;50.118;9.900;2022-07-11T09:47:43;2.30;;;0.50;;
17365;SDS011;8800;50.118;9.900;2022-07-11T09:50:09;0.47;;;0.30;;
17365;SDS011;8800;50.118;9.900;2022-07-11T09:52:36;0.40;;;0.30;;
17365;SDS011;8800;50.118;9.900;2022-07-11T09:55:04;1.02;;;0.40;;
17365;SDS011;8800;50.118;9.900;2022-07-11T09:57:31;1.65;;;0.40;;
17365;SDS011;8800;50.118;9.900;2022-07-11T09:59:58;0.28;;;0.20;;
17365;SDS011;8800;50.118;9.900;2022-07-11T10:02:26;0.47;;;0.30;;
17365;SDS011;8800;50.118;9.900;2022-07-11T10:04:52;0.50;;;0.40;;
17365;SDS011;8800;50.118;9.900;2022-07-11T10:07:19;0.95;;;0.28;;
17365;SDS011;8800;50.118;9.900;2022-07-11T10:09:45;0.75;;;0.20;;
17365;SDS011;8800;50.118;9.900;2022-07-11T10:12:13;0.82;;;0.35;;
17365;SDS011;8800;50.118;9.900;2022-07-11T10:14:39;0.38;;;0.30;;
17365;SDS011;8800;50.118;9.900;2022-07-11T10:17:07;1.33;;;0.47;;
17365;SDS011;8800;50.118;9.900;2022-07-11T10:19:39;1.83;;;0.50;;
17365;SDS011;8800;50.118;9.900;2022-07-11T10:22:10;1.15;;;0.40;;
17365;SDS011;8800;50.118;9.900;2022-07-11T10:24:44;0.88;;;0.40;;
17365;SDS011;8800;50.118;9.900;2022-07-11T10:27:16;2.40;;;0.40;;
17365;SDS011;8800;50.118;9.900;2022-07-11T10:29:48;1.27;;;0.55;;
17365;SDS011;8800;50.118;9.900;2022-07-11T10:32:15;1.60;;;0.60;;
17365;SDS011;8800;50.118;9.900;2022-07-11T10:34:42;1.33;;;1.00;;
17365;SDS011;8800;50.118;9.900;2022-07-11T10:37:09;0.80;;;0.80;;
17365;SDS011;8800;50.118;9.900;2022-07-11T10:39:37;1.23;;;0.85;;
17365;SDS011;8800;50.118;9.900;2022-07-11T10:42:04;1.13;;;0.60;;
17365;SDS011;8800;50.118;9.900;2022-07-11T10:49:54;1.42;;;1.00;;
17365;SDS011;8800;50.118;9.900;2022-07-11T10:52:22;1.75;;;0.90;;
17365;SDS011;8800;50.118;9.900;2022-07-11T10:54:55;1.08;;;0.73;;
17365;SDS011;8800;50.118;9.900;2022-07-11T10:57:26;1.02;;;0.77;;
17365;SDS011;8800;50.118;9.900;2022-07-11T10:59:57;1.98;;;0.75;;
17365;SDS011;8800;50.118;9.900;2022-07-11T11:02:23;2.80;;;0.80;;
17365;SDS011;8800;50.118;9.900;2022-07-11T11:04:50;1.58;;;0.73;;
17365;SDS011;8800;50.118;9.900;2022-07-11T11:07:34;0.88;;;0.63;;
17365;SDS011;8800;50.118;9.900;2022-07-11T11:10:02;1.30;;;0.73;;
17365;SDS011;8800;50.118;9.900;2022-07-11T11:15:33;2.33;;;0.95;;
17365;SDS011;8800;50.118;9.900;2022-07-11T11:18:11;1.20;;;0.70;;
17365;SDS011;8800;50.118;9.900;2022-07-11T11:23:39;2.53;;;0.80;;
17365;SDS011;8800;50.118;9.900;2022-07-11T11:26:06;0.85;;;0.70;;
17365;SDS011;8800;50.118;9.900;2022-07-11T11:28:33;1.70;;;0.70;;
17365;SDS011;8800;50.118;9.900;2022-07-11T11:31:00;1.00;;;0.68;;
17365;SDS011;8800;50.118;9.900;2022-07-11T11:33:28;0.82;;;0.52;;
17365;SDS011;8800;50.118;9.900;2022-07-11T11:35:59;1.15;;;0.80;;
17365;SDS011;8800;50.118;9.900;2022-07-11T11:38:26;1.83;;;0.60;;
17365;SDS011;8800;50.118;9.900;2022-07-11T11:40:53;1.40;;;0.70;;
17365;SDS011;8800;50.118;9.900;2022-07-11T11:43:20;1.35;;;0.65;;
17365;SDS011;8800;50.118;9.900;2022-07-11T11:45:47;0.90;;;0.70;;
17365;SDS011;8800;50.118;9.900;2022-07-11T11:48:25;0.80;;;0.55;;
17365;SDS011;8800;50.118;9.900;2022-07-11T11:50:51;1.02;;;0.50;;
17365;SDS011;8800;50.118;9.900;2022-07-11T11:53:18;0.70;;;0.60;;
17365;SDS011;8800;50.118;9.900;2022-07-11T11:55:44;0.93;;;0.50;;
17365;SDS011;8800;50.118;9.900;2022-07-11T11:58:12;0.52;;;0.40;;
17365;SDS011;8800;50.118;9.900;2022-07-11T12:00:39;0.80;;;0.50;;
17365;SDS011;8800;50.118;9.900;2022-07-11T12:03:05;1.08;;;0.63;;
17365;SDS011;8800;50.118;9.900;2022-07-11T12:05:31;0.65;;;0.40;;
17365;SDS011;8800;50.118;9.900;2022-07-11T12:07:58;0.90;;;0.55;;
17365;SDS011;8800;50.118;9.900;2022-07-11T12:10:25;2.30;;;0.65;;
17365;SDS011;8800;50.118;9.900;2022-07-11T12:12:51;0.60;;;0.47;;
17365;SDS011;8800;50.118;9.900;2022-07-11T12:15:27;0.68;;;0.40;;
17365;SDS011;8800;50.118;9.900;2022-07-11T12:17:57;0.30;;;0.30;;
17365;SDS011;8800;50.118;9.900;2022-07-11T12:20:35;0.50;;;0.50;;
17365;SDS011;8800;50.118;9.900;2022-07-11T12:23:03;0.35;;;0.35;;
17365;SDS011;8800;50.118;9.900;2022-07-11T12:25:29;0.85;;;0.40;;
17365;SDS011;8800;50.118;9.900;2022-07-11T12:27:56;0.38;;;0.38;;
17365;SDS011;8800;50.118;9.900;2022-07-11T12:30:23;0.65;;;0.52;;
17365;SDS011;8800;50.118;9.900;2022-07-11T12:33:02;1.30;;;0.52;;
17365;SDS011;8800;50.118;9.900;2022-07-11T12:35:29;0.98;;;0.73;;
17365;SDS011;8800;50.118;9.900;2022-07-11T12:37:55;2.58;;;0.60;;
17365;SDS011;8800;50.118;9.900;2022-07-11T12:40:22;0.57;;;0.40;;
17365;SDS011;8800;50.118;9.900;2022-07-11T12:42:48;1.20;;;0.57;;
17365;SDS011;8800;50.118;9.900;2022-07-11T12:45:15;1.85;;;0.57;;
17365;SDS011;8800;50.118;9.900;2022-07-11T12:47:42;0.98;;;0.40;;
17365;SDS011;8800;50.118;9.900;2022-07-11T12:50:13;1.95;;;0.50;;
17365;SDS011;8800;50.118;9.900;2022-07-11T12:52:41;0.57;;;0.57;;
17365;SDS011;8800;50.118;9.900;2022-07-11T12:55:10;0.82;;;0.60;;
17365;SDS011;8800;50.118;9.900;2022-07-11T12:57:37;0.70;;;0.50;;
17365;SDS011;8800;50.118;9.900;2022-07-11T13:00:10;0.63;;;0.57;;
17365;SDS011;8800;50.118;9.900;2022-07-11T13:02:40;1.33;;;0.70;;
17365;SDS011;8800;50.118;9.900;2022-07-11T13:05:06;0.68;;;0.50;;
17365;SDS011;8800;50.118;9.900;2022-07-11T13:07:34;0.98;;;0.60;;
17365;SDS011;8800;50.118;9.900;2022-07-11T13:10:18;1.48;;;1.02;;
17365;SDS011;8800;50.118;9.900;2022-07-11T13:12:46;0.57;;;0.55;;
17365;SDS011;8800;50.118;9.900;2022-07-11T13:15:13;0.63;;;0.40;;
17365;SDS011;8800;50.118;9.900;2022-07-11T13:17:43;2.28;;;0.60;;
17365;SDS011;8800;50.118;9.900;2022-07-11T13:20:10;0.50;;;0.50;;
17365;SDS011;8800;50.118;9.900;2022-07-11T13:22:39;0.63;;;0.60;;
17365;SDS011;8800;50.118;9.900;2022-07-11T13:25:06;0.47;;;0.47;;
17365;SDS011;8800;50.118;9.900;2022-07-11T13:27:32;1.25;;;0.50;;
17365;SDS011;8800;50.118;9.900;2022-07-11T13:29:59;1.02;;;0.70;;
17365;SDS011;8800;50.118;9.900;2022-07-11T13:32:25;2.22;;;0.60;;
17365;SDS011;8800;50.118;9.900;2022-07-11T13:34:52;0.75;;;0.60;;
17365;SDS011;8800;50.118;9.900;2022-07-11T13:37:18;1.38;;;0.70;;
17365;SDS011;8800;50.118;9.900;2022-07-11T13:39:46;0.70;;;0.70;;
17365;SDS011;8800;50.118;9.900;2022-07-11T13:42:12;0.60;;;0.60;;
17365;SDS011;8800;50.118;9.900;2022-07-11T13:44:39;0.82;;;0.60;;
17365;SDS011;8800;50.118;9.900;2022-07-11T13:47:05;2.08;;;0.60;;
17365;SDS011;8800;50.118;9.900;2022-07-11T13:49:32;1.58;;;0.80;;
17365;SDS011;8800;50.118;9.900;2022-07-11T13:51:58;0.93;;;0.80;;
17365;SDS011;8800;50.118;9.900;2022-07-11T13:54:24;3.60;;;0.90;;
17365;SDS011;8800;50.118;9.900;2022-07-11T13:56:52;1.23;;;0.70;;
17365;SDS011;8800;50.118;9.900;2022-07-11T13:59:18;3.15;;;0.70;;
17365;SDS011;8800;50.118;9.900;2022-07-11T14:01:45;0.70;;;0.70;;
17365;SDS011;8800;50.118;9.900;2022-07-11T14:04:12;2.65;;;0.93;;
17365;SDS011;8800;50.118;9.900;2022-07-11T14:06:38;1.88;;;0.70;;
17365;SDS011;8800;50.118;9.900;2022-07-11T14:09:05;1.58;;;0.77;;
17365;SDS011;8800;50.118;9.900;2022-07-11T14:11:32;1.00;;;0.90;;
17365;SDS011;8800;50.118;9.900;2022-07-11T14:13:59;0.85;;;0.80;;
17365;SDS011;8800;50.118;9.900;2022-07-11T14:16:26;3.40;;;0.80;;
17365;SDS011;8800;50.118;9.900;2022-07-11T14:18:52;2.85;;;0.90;;
17365;SDS011;8800;50.118;9.900;2022-07-11T14:21:19;2.50;;;0.90;;
17365;SDS011;8800;50.118;9.900;2022-07-11T14:23:45;0.80;;;0.80;;
17365;SDS011;8800;50.118;9.900;2022-07-11T14:26:12;1.83;;;1.00;;
17365;SDS011;8800;50.118;9.900;2022-07-11T14:28:38;1.05;;;0.95;;
17365;SDS011;8800;50.118;9.900;2022-07-11T14:31:06;1.85;;;1.15;;
17365;SDS011;8800;50.118;9.900;2022-07-11T14:33:33;1.20;;;0.93;;
17365;SDS011;8800;50.118;9.900;2022-07-11T14:35:59;0.90;;;0.90;;
17365;SDS011;8800;50.118;9.900;2022-07-11T14:38:25;1.38;;;1.00;;
17365;SDS011;8800;50.118;9.900;2022-07-11T14:40:54;0.98;;;0.90;;
17365;SDS011;8800;50.118;9.900;2022-07-11T14:43:20;2.28;;;1.23;;
17365;SDS011;8800;50.118;9.900;2022-07-11T14:45:47;2.00;;;1.20;;
17365;SDS011;8800;50.118;9.900;2022-07-11T14:48:14;1.27;;;1.17;;
17365;SDS011;8800;50.118;9.900;2022-07-11T14:50:41;3.63;;;1.20;;
17365;SDS011;8800;50.118;9.900;2022-07-11T14:53:07;1.30;;;1.20;;
17365;SDS011;8800;50.118;9.900;2022-07-11T14:55:34;1.90;;;1.20;;
17365;SDS011;8800;50.118;9.900;2022-07-11T14:58:00;2.85;;;1.30;;
17365;SDS011;8800;50.118;9.900;2022-07-11T15:00:26;1.42;;;1.10;;
17365;SDS011;8800;50.118;9.900;2022-07-11T15:02:53;2.78;;;1.30;;
17365;SDS011;8800;50.118;9.900;2022-07-11T15:05:38;4.55;;;1.20;;
17365;SDS011;8800;50.118;9.900;2022-07-11T15:08:04;5.65;;;1.25;;
17365;SDS011;8800;50.118;9.900;2022-07-11T15:10:48;4.88;;;1.48;;
17365;SDS011;8800;50.118;9.900;2022-07-11T15:13:32;1.63;;;1.27;;
17365;SDS011;8800;50.118;9.900;2022-07-11T15:15:59;1.70;;;1.30;;
17365;SDS011;8800;50.118;9.900;2022-07-11T15:18:25;2.85;;;1.30;;